createdAt,value
2023-04-26T00:02:00.569Z,3.14
2023-04-26T00:04:28.962Z,3.19
2023-04-26T00:06:56.651Z,3.22
2023-04-26T00:09:24.418Z,3.19
2023-04-26T00:11:52.085Z,3.28
2023-04-26T00:14:19.247Z,3.32
2023-04-26T00:16:46.294Z,3.41
2023-04-26T00:19:13.697Z,3.43
2023-04-26T00:21:40.796Z,3.45
2023-04-26T00:24:08.327Z,3.55
2023-04-26T00:26:35.740Z,3.62
2023-04-26T00:29:04.368Z,3.79
2023-04-26T00:31:31.872Z,3.89
2023-04-26T00:33:59.246Z,4.01
2023-04-26T00:36:27.725Z,4.10
2023-04-26T00:38:54.925Z,4.14
2023-04-26T00:41:22.490Z,4.27
2023-04-26T00:43:49.675Z,4.33
2023-04-26T00:46:17.150Z,4.42
2023-04-26T00:48:44.842Z,4.63
2023-04-26T00:51:13.446Z,4.85
2023-04-26T00:53:41.079Z,5.14
2023-04-26T00:56:09.562Z,5.54
2023-04-26T00:58:37.726Z,5.96
2023-04-26T01:01:05.253Z,6.45
2023-04-26T01:03:33.442Z,6.83
2023-04-26T01:06:01.098Z,7.05
2023-04-26T01:08:28.559Z,7.34
2023-04-26T01:10:58.125Z,7.69
2023-04-26T01:13:25.892Z,8.00
2023-04-26T01:15:53.028Z,8.22
2023-04-26T01:18:20.028Z,8.44
2023-04-26T01:20:48.120Z,8.64
2023-04-26T01:23:16.084Z,8.95
2023-04-26T01:25:43.009Z,9.55
2023-04-26T01:28:10.108Z,10.18
2023-04-26T01:30:37.448Z,10.51
2023-04-26T01:33:04.514Z,10.75
2023-04-26T01:35:32.169Z,11.47
2023-04-26T01:37:59.184Z,11.99
2023-04-26T01:40:28.268Z,11.85
2023-04-26T01:42:55.775Z,11.86
2023-04-26T01:45:22.939Z,12.31
2023-04-26T01:48:08.684Z,12.88
2023-04-26T01:50:36.051Z,13.09
2023-04-26T01:53:03.520Z,13.52
2023-04-26T01:55:30.887Z,13.36
2023-04-26T01:57:58.211Z,13.45
2023-04-26T02:00:29.710Z,13.46
2023-04-26T02:02:57.290Z,13.78
2023-04-26T02:05:25.370Z,14.03
2023-04-26T02:07:52.608Z,14.22
2023-04-26T02:10:20.037Z,14.34
2023-04-26T02:12:47.881Z,14.36
2023-04-26T02:15:15.078Z,14.72
2023-04-26T02:17:42.674Z,14.58
2023-04-26T02:20:11.079Z,14.35
2023-04-26T02:22:38.267Z,14.12
2023-04-26T02:25:06.796Z,13.63
2023-04-26T02:27:34.203Z,13.12
2023-04-26T02:30:01.646Z,12.81
2023-04-26T02:32:29.617Z,13.06
2023-04-26T02:34:58.214Z,13.36
2023-04-26T02:37:26.807Z,13.62
2023-04-26T02:39:54.298Z,13.84
2023-04-26T02:42:21.465Z,13.97
2023-04-26T02:44:48.991Z,14.02
2023-04-26T02:47:16.932Z,13.95
2023-04-26T02:49:44.100Z,14.01
2023-04-26T02:52:11.450Z,13.97
2023-04-26T02:54:38.589Z,14.06
2023-04-26T02:57:05.993Z,14.09
2023-04-26T02:59:33.288Z,14.22
2023-04-26T03:02:00.496Z,14.26
2023-04-26T03:04:28.527Z,14.36
2023-04-26T03:06:55.870Z,14.29
2023-04-26T03:09:23.475Z,14.35
2023-04-26T03:11:52.413Z,14.73
2023-04-26T03:14:24.379Z,14.78
2023-04-26T03:16:51.906Z,14.88
2023-04-26T03:19:19.534Z,15.27
2023-04-26T03:21:47.824Z,15.76
2023-04-26T03:24:15.158Z,15.76
2023-04-26T03:26:42.224Z,15.58
2023-04-26T03:29:10.171Z,15.96
2023-04-26T03:31:38.281Z,16.10
2023-04-26T03:34:06.284Z,16.13
2023-04-26T03:36:33.670Z,16.21
2023-04-26T03:39:02.365Z,16.34
2023-04-26T03:41:29.987Z,16.61
2023-04-26T03:44:00.607Z,16.66
2023-04-26T03:46:28.006Z,16.69
2023-04-26T03:48:55.439Z,16.65
2023-04-26T03:51:22.766Z,16.50
2023-04-26T03:53:50.726Z,16.25
2023-04-26T03:56:17.920Z,15.76
2023-04-26T03:58:45.319Z,15.22
2023-04-26T04:01:12.817Z,14.94
2023-04-26T04:03:41.556Z,14.93
2023-04-26T04:06:09.448Z,15.08
2023-04-26T04:08:36.800Z,15.13
2023-04-26T04:11:04.319Z,15.11
2023-04-26T04:13:34.213Z,15.24
2023-04-26T04:16:01.693Z,15.33
2023-04-26T04:18:29.421Z,15.36
2023-04-26T04:20:56.810Z,15.23
2023-04-26T04:23:25.034Z,15.05
2023-04-26T04:25:53.397Z,14.94
2023-04-26T04:28:22.584Z,14.84
2023-04-26T04:30:50.536Z,14.75
2023-04-26T04:33:18.949Z,14.97
2023-04-26T04:35:46.869Z,15.04
2023-04-26T04:38:14.259Z,15.26
2023-04-26T04:40:41.951Z,15.61
2023-04-26T04:43:09.113Z,15.84
2023-04-26T04:45:36.929Z,16.01
2023-04-26T04:48:05.379Z,15.96
2023-04-26T04:50:33.015Z,15.43
2023-04-26T04:53:00.559Z,15.26
2023-04-26T04:55:28.511Z,15.34
2023-04-26T04:57:56.082Z,15.29
2023-04-26T05:00:23.750Z,15.08
2023-04-26T05:03:01.824Z,14.49
2023-04-26T05:05:31.068Z,14.07
2023-04-26T05:07:58.770Z,13.97
2023-04-26T05:10:27.113Z,13.94
2023-04-26T05:12:54.257Z,13.97
2023-04-26T05:15:22.103Z,14.16
2023-04-26T05:17:49.655Z,14.35
2023-04-26T05:20:19.914Z,14.51
2023-04-26T05:22:47.373Z,14.80
2023-04-26T05:25:14.890Z,14.91
2023-04-26T05:27:45.361Z,14.90
2023-04-26T05:30:20.828Z,14.50
2023-04-26T05:33:06.687Z,14.18
2023-04-26T05:35:44.663Z,14.18
2023-04-26T05:38:12.158Z,14.14
2023-04-26T05:40:39.118Z,14.19
2023-04-26T05:43:06.607Z,14.28
2023-04-26T05:45:35.792Z,14.04
2023-04-26T05:48:03.332Z,13.94
2023-04-26T05:50:31.035Z,13.91
2023-04-26T05:52:58.887Z,14.06
2023-04-26T05:55:26.556Z,14.20
2023-04-26T05:57:53.650Z,14.12
2023-04-26T06:00:23.278Z,14.02
2023-04-26T06:02:51.535Z,14.06
2023-04-26T06:05:19.059Z,14.01
2023-04-26T06:07:47.418Z,14.08
2023-04-26T06:10:14.998Z,13.91
2023-04-26T06:12:42.665Z,13.61
2023-04-26T06:15:10.757Z,13.67
2023-04-26T06:17:41.808Z,13.64
2023-04-26T06:20:10.370Z,13.64
2023-04-26T06:22:38.199Z,13.72
2023-04-26T06:25:06.598Z,13.71
2023-04-26T06:27:36.324Z,13.51
2023-04-26T06:30:04.077Z,13.33
2023-04-26T06:32:33.686Z,13.12
2023-04-26T06:35:00.961Z,12.87
2023-04-26T06:37:28.602Z,12.50
2023-04-26T06:39:55.999Z,12.24
2023-04-26T06:42:23.420Z,12.01
2023-04-26T06:45:14.211Z,11.70
2023-04-26T06:47:41.493Z,11.45
2023-04-26T06:50:09.447Z,11.25
2023-04-26T06:52:37.160Z,11.04
2023-04-26T06:55:04.515Z,10.77
2023-04-26T06:57:33.506Z,10.57
2023-04-26T07:00:00.957Z,10.42
2023-04-26T07:02:28.646Z,10.35
2023-04-26T07:04:56.620Z,10.12
2023-04-26T07:07:24.371Z,9.62
2023-04-26T07:09:52.629Z,9.06
2023-04-26T07:12:19.881Z,8.52
2023-04-26T07:14:47.178Z,7.95
2023-04-26T07:17:14.658Z,7.42
2023-04-26T07:19:41.792Z,7.08
2023-04-26T07:22:09.149Z,6.77
2023-04-26T07:24:36.713Z,6.54
2023-04-26T07:27:04.160Z,6.32
2023-04-26T07:29:31.453Z,6.10
2023-04-26T07:31:58.678Z,6.06
2023-04-26T07:34:26.387Z,6.13
2023-04-26T07:36:54.097Z,6.12
2023-04-26T07:39:21.123Z,6.29
2023-04-26T07:41:48.778Z,6.47
2023-04-26T07:44:15.856Z,6.67
2023-04-26T07:46:43.217Z,6.68
2023-04-26T07:49:10.594Z,6.58
2023-04-26T07:51:37.983Z,6.67
2023-04-26T07:54:05.151Z,6.75
2023-04-26T07:56:32.587Z,6.90
2023-04-26T07:58:59.524Z,7.01
2023-04-26T08:01:26.766Z,7.08
2023-04-26T08:03:55.430Z,7.03
2023-04-26T08:06:23.110Z,7.16
2023-04-26T08:08:51.141Z,7.39
2023-04-26T08:11:18.309Z,7.77
2023-04-26T08:13:46.115Z,8.09
2023-04-26T08:16:13.222Z,8.34
2023-04-26T08:18:40.670Z,8.47
2023-04-26T08:21:07.690Z,8.52
2023-04-26T08:23:38.721Z,8.57
2023-04-26T08:26:06.125Z,8.73
2023-04-26T08:28:33.137Z,8.84
2023-04-26T08:31:00.448Z,8.86
2023-04-26T08:33:27.826Z,8.72
2023-04-26T08:35:55.733Z,8.56
2023-04-26T08:38:23.178Z,8.60
2023-04-26T08:40:50.550Z,8.74
2023-04-26T08:43:18.145Z,8.84
2023-04-26T08:45:48.080Z,8.79
2023-04-26T08:48:18.459Z,8.81
2023-04-26T08:50:49.042Z,8.95
2023-04-26T08:53:20.169Z,9.07
2023-04-26T08:55:50.546Z,9.15
2023-04-26T08:58:18.411Z,9.11
2023-04-26T09:00:48.572Z,9.28
2023-04-26T09:03:16.379Z,9.57
2023-04-26T09:05:44.034Z,9.78
2023-04-26T09:08:16.097Z,9.87
2023-04-26T09:10:43.559Z,9.95
2023-04-26T09:13:11.684Z,9.84
2023-04-26T09:15:38.837Z,10.00
2023-04-26T09:18:19.886Z,10.30
2023-04-26T09:21:01.002Z,10.34
2023-04-26T09:23:28.776Z,10.32
2023-04-26T09:25:55.788Z,10.55
2023-04-26T09:28:23.612Z,10.65
2023-04-26T09:30:51.238Z,10.44
2023-04-26T09:33:19.160Z,10.43
2023-04-26T09:35:46.903Z,10.71
2023-04-26T09:38:17.724Z,10.70
2023-04-26T09:40:49.445Z,10.56
2023-04-26T09:43:20.752Z,10.39
2023-04-26T09:45:52.072Z,10.33
2023-04-26T09:48:25.535Z,10.22
2023-04-26T09:50:54.213Z,10.22
2023-04-26T09:53:36.672Z,10.31
2023-04-26T09:56:18.662Z,10.29
2023-04-26T09:58:50.085Z,10.20
2023-04-26T10:01:18.798Z,10.11
2023-04-26T10:03:46.609Z,10.04
2023-04-26T10:06:13.918Z,9.92
2023-04-26T10:08:41.603Z,9.89
2023-04-26T10:11:11.091Z,9.89
2023-04-26T10:13:40.460Z,9.94
2023-04-26T10:16:09.490Z,9.83
2023-04-26T10:18:37.286Z,9.61
2023-04-26T10:21:17.893Z,9.29
2023-04-26T10:23:45.729Z,8.89
2023-04-26T10:26:51.642Z,8.66
2023-04-26T10:29:19.978Z,8.17
2023-04-26T10:32:03.642Z,6.89
2023-04-26T10:34:33.947Z,5.77
2023-04-26T10:37:17.939Z,4.92
2023-04-26T10:39:46.879Z,4.31
2023-04-26T10:42:25.877Z,3.95
2023-04-26T10:44:59.968Z,3.68
2023-04-26T10:47:32.015Z,3.57
2023-04-26T10:50:09.760Z,3.55
2023-04-26T10:52:56.523Z,3.55
2023-04-26T10:55:42.401Z,3.62
2023-04-26T10:58:32.921Z,3.72
2023-04-26T11:01:24.306Z,3.89
2023-04-26T11:03:57.993Z,4.25
2023-04-26T11:06:26.560Z,4.46
2023-04-26T11:08:54.856Z,4.62
2023-04-26T11:11:25.923Z,4.87
2023-04-26T11:13:53.337Z,5.11
2023-04-26T11:16:20.998Z,5.18
2023-04-26T11:18:48.116Z,5.36
2023-04-26T11:21:18.893Z,5.59
2023-04-26T11:23:56.115Z,5.78
2023-04-26T11:26:24.489Z,5.87
2023-04-26T11:28:52.034Z,5.95
2023-04-26T11:31:19.451Z,6.05
2023-04-26T11:33:49.874Z,5.98
2023-04-26T11:36:19.348Z,5.88
2023-04-26T11:38:47.721Z,5.76
2023-04-26T11:41:14.991Z,5.64
2023-04-26T11:43:42.479Z,5.57
2023-04-26T11:46:10.130Z,5.72
2023-04-26T11:48:38.284Z,5.73
2023-04-26T11:51:06.806Z,5.69
2023-04-26T11:53:43.561Z,5.75
2023-04-26T11:56:20.215Z,5.62
2023-04-26T11:58:48.831Z,5.55
2023-04-26T12:01:23.063Z,5.53
2023-04-26T12:03:54.805Z,5.62
2023-04-26T12:06:52.335Z,5.69
2023-04-26T12:09:31.722Z,5.70
2023-04-26T12:12:02.313Z,5.66
2023-04-26T12:14:33.423Z,5.65
2023-04-26T12:17:02.852Z,5.61
2023-04-26T12:19:36.970Z,5.57
2023-04-26T12:22:04.700Z,5.55
2023-04-26T12:24:38.221Z,5.52
2023-04-26T12:27:09.181Z,5.50
2023-04-26T12:29:36.591Z,5.46
2023-04-26T12:32:04.397Z,5.47
2023-04-26T12:34:31.728Z,5.44
2023-04-26T12:36:58.731Z,5.39
2023-04-26T12:39:26.338Z,5.37
2023-04-26T12:41:55.117Z,5.36
2023-04-26T12:44:22.798Z,5.31
2023-04-26T12:46:51.456Z,5.29
2023-04-26T12:49:18.883Z,5.29
2023-04-26T12:51:49.308Z,5.30
2023-04-26T12:54:16.736Z,5.31
2023-04-26T12:56:45.084Z,5.28
2023-04-26T12:59:12.143Z,5.21
2023-04-26T13:01:39.431Z,4.99
2023-04-26T13:04:06.874Z,4.79
2023-04-26T13:06:34.608Z,4.58
2023-04-26T13:09:02.354Z,4.40
2023-04-26T13:11:29.712Z,4.21
2023-04-26T13:13:56.941Z,4.06
2023-04-26T13:16:24.320Z,3.94
2023-04-26T13:18:51.960Z,3.82
2023-04-26T13:21:19.411Z,3.74
2023-04-26T13:23:47.119Z,3.65
2023-04-26T13:26:17.234Z,3.60
2023-04-26T13:28:44.595Z,3.54
2023-04-26T13:31:11.785Z,3.43
2023-04-26T13:33:39.000Z,3.39
2023-04-26T13:36:07.061Z,3.35
2023-04-26T13:38:34.333Z,3.36
2023-04-26T13:41:02.428Z,3.37
2023-04-26T13:43:29.815Z,3.30
2023-04-26T13:45:57.225Z,3.18
2023-04-26T13:48:24.595Z,3.05
2023-04-26T13:50:51.849Z,2.92
2023-04-26T13:53:22.285Z,2.90
2023-04-26T13:55:49.664Z,2.82
2023-04-26T13:58:17.358Z,2.74
2023-04-26T14:00:45.166Z,2.69
2023-04-26T14:03:12.560Z,2.65
2023-04-26T14:05:40.067Z,2.61
2023-04-26T14:08:07.982Z,2.56
2023-04-26T14:10:36.186Z,2.52
2023-04-26T14:13:03.612Z,2.49
2023-04-26T14:15:30.946Z,2.43
2023-04-26T14:17:58.129Z,2.37
2023-04-26T14:20:25.786Z,2.31
2023-04-26T14:22:52.874Z,2.28
2023-04-26T14:25:20.338Z,2.24
2023-04-26T14:27:48.318Z,2.21
2023-04-26T14:30:16.749Z,2.19
2023-04-26T14:32:43.725Z,2.15
2023-04-26T14:35:11.275Z,2.11
2023-04-26T14:37:38.739Z,2.08
2023-04-26T14:40:07.959Z,2.05
2023-04-26T14:42:35.667Z,2.01
2023-04-26T14:45:03.274Z,1.97
2023-04-26T14:47:31.782Z,1.94
2023-04-26T14:49:58.835Z,1.89
2023-04-26T14:52:28.035Z,1.86
2023-04-26T14:54:55.208Z,1.84
2023-04-26T14:57:22.738Z,1.78
2023-04-26T14:59:49.865Z,1.74
2023-04-26T15:02:17.356Z,1.70
2023-04-26T15:04:44.593Z,1.66
2023-04-26T15:07:20.967Z,1.65
2023-04-26T15:09:56.274Z,1.63
2023-04-26T15:12:23.839Z,1.61
2023-04-26T15:14:51.281Z,1.58
2023-04-26T15:17:18.600Z,1.65
2023-04-26T15:19:46.276Z,1.65
2023-04-26T15:22:13.377Z,1.63
2023-04-26T15:24:40.488Z,1.57
2023-04-26T15:27:08.252Z,1.52
2023-04-26T15:29:35.726Z,1.48
2023-04-26T15:32:03.307Z,1.46
2023-04-26T15:34:31.026Z,1.47
2023-04-26T15:37:00.298Z,1.45
2023-04-26T15:39:27.661Z,1.44
2023-04-26T15:41:54.929Z,1.38
2023-04-26T15:44:22.263Z,1.34
2023-04-26T15:46:49.643Z,1.26
2023-04-26T15:49:17.401Z,1.25
2023-04-26T15:51:44.763Z,1.20
2023-04-26T15:54:11.883Z,1.19
2023-04-26T15:56:38.955Z,1.16
2023-04-26T15:59:06.568Z,1.14
2023-04-26T16:01:34.105Z,1.14
2023-04-26T16:04:01.877Z,1.13
2023-04-26T16:06:29.397Z,1.10
2023-04-26T16:08:56.721Z,1.05
2023-04-26T16:11:23.869Z,1.02
2023-04-26T16:13:51.688Z,0.99
2023-04-26T16:16:19.262Z,0.97
2023-04-26T16:18:46.857Z,0.93
2023-04-26T16:21:14.313Z,0.94
2023-04-26T16:23:41.811Z,0.92
2023-04-26T16:26:09.292Z,0.88
2023-04-26T16:28:36.503Z,0.85
2023-04-26T16:31:04.080Z,0.82
2023-04-26T16:33:31.508Z,0.79
2023-04-26T16:35:58.571Z,0.79
2023-04-26T16:38:26.258Z,0.75
2023-04-26T16:40:57.553Z,0.72
2023-04-26T16:43:27.162Z,0.72
2023-04-26T16:46:02.348Z,0.67
2023-04-26T16:48:38.199Z,0.61
2023-04-26T16:51:07.649Z,0.54
2023-04-26T16:53:35.973Z,0.53
2023-04-26T16:56:03.899Z,0.48
2023-04-26T16:58:31.204Z,0.43
2023-04-26T17:00:58.613Z,0.40
2023-04-26T17:03:26.452Z,0.38
2023-04-26T17:05:54.015Z,0.33
2023-04-26T17:08:21.660Z,0.34
2023-04-26T17:10:49.161Z,0.33
2023-04-26T17:13:16.276Z,0.31
2023-04-26T17:15:43.786Z,0.29
2023-04-26T17:18:11.348Z,0.28
2023-04-26T17:20:38.888Z,0.27
2023-04-26T17:23:07.594Z,0.22
2023-04-26T17:25:34.797Z,0.17
2023-04-26T17:28:02.056Z,0.13
2023-04-26T17:30:29.429Z,0.11
2023-04-26T17:32:56.846Z,0.09
2023-04-26T17:35:24.476Z,0.05
2023-04-26T17:37:51.671Z,0.00
2023-04-26T17:40:19.341Z,-0.01
2023-04-26T17:42:46.905Z,-0.05
2023-04-26T17:45:14.891Z,-0.08
2023-04-26T17:47:42.678Z,-0.11
2023-04-26T17:50:10.504Z,-0.14
2023-04-26T17:52:38.108Z,-0.14
2023-04-26T17:55:07.851Z,-0.17
2023-04-26T17:57:35.316Z,-0.17
2023-04-26T18:00:03.353Z,-0.17
2023-04-26T18:02:37.967Z,-0.18
2023-04-26T18:05:06.616Z,-0.21
2023-04-26T18:07:34.321Z,-0.24
2023-04-26T18:10:01.708Z,-0.25
2023-04-26T18:12:30.567Z,-0.26
2023-04-26T18:14:57.867Z,-0.27
2023-04-26T18:17:25.376Z,-0.30
2023-04-26T18:19:52.896Z,-0.33
2023-04-26T18:22:20.506Z,-0.25
2023-04-26T18:24:48.074Z,-0.19
2023-04-26T18:27:15.182Z,-0.15
2023-04-26T18:29:43.223Z,-0.22
2023-04-26T18:32:10.643Z,-0.23
2023-04-26T18:34:37.811Z,-0.24
2023-04-26T18:37:05.940Z,-0.20
2023-04-26T18:39:33.332Z,-0.14
2023-04-26T18:42:00.860Z,-0.14
2023-04-26T18:44:28.423Z,-0.16
2023-04-26T18:46:56.310Z,-0.18
2023-04-26T18:49:24.130Z,-0.20
2023-04-26T18:51:51.555Z,-0.24
2023-04-26T18:54:18.717Z,-0.27
2023-04-26T18:56:45.825Z,-0.26
2023-04-26T18:59:13.472Z,-0.28
2023-04-26T19:01:41.433Z,-0.32
2023-04-26T19:04:09.331Z,-0.34
2023-04-26T19:06:36.650Z,-0.38
2023-04-26T19:09:05.789Z,-0.38
2023-04-26T19:11:32.867Z,-0.39
2023-04-26T19:14:00.547Z,-0.39
2023-04-26T19:16:27.794Z,-0.38
2023-04-26T19:18:55.089Z,-0.36
2023-04-26T19:21:22.576Z,-0.36
2023-04-26T19:23:49.771Z,-0.38
2023-04-26T19:26:17.949Z,-0.44
2023-04-26T19:28:45.569Z,-0.43
2023-04-26T19:31:12.701Z,-0.48
2023-04-26T19:33:40.239Z,-0.48
2023-04-26T19:36:09.657Z,-0.51
2023-04-26T19:38:36.676Z,-0.55
2023-04-26T19:41:04.307Z,-0.56
2023-04-26T19:43:31.551Z,-0.62
2023-04-26T19:45:58.876Z,-0.67
2023-04-26T19:48:26.192Z,-0.74
2023-04-26T19:50:53.536Z,-0.81
2023-04-26T19:53:20.920Z,-0.86
2023-04-26T19:55:48.457Z,-0.92
2023-04-26T19:58:16.098Z,-0.97
2023-04-26T20:00:43.798Z,-1.04
2023-04-26T20:03:11.718Z,-1.10
2023-04-26T20:05:39.098Z,-1.15
2023-04-26T20:08:06.196Z,-1.18
2023-04-26T20:10:34.360Z,-1.24
2023-04-26T20:13:02.336Z,-1.28
2023-04-26T20:15:31.536Z,-1.32
2023-04-26T20:18:01.936Z,-1.33
2023-04-26T20:20:29.032Z,-1.35
2023-04-26T20:22:56.337Z,-1.36
2023-04-26T20:25:23.393Z,-1.42
2023-04-26T20:27:50.902Z,-1.42
2023-04-26T20:30:17.861Z,-1.43
2023-04-26T20:32:45.515Z,-1.43
2023-04-26T20:35:13.416Z,-1.44
2023-04-26T20:37:40.396Z,-1.43
2023-04-26T20:40:09.210Z,-1.39
2023-04-26T20:42:37.533Z,-1.41
2023-04-26T20:45:06.028Z,-1.42
2023-04-26T20:47:33.445Z,-1.41
2023-04-26T20:50:00.620Z,-1.41
2023-04-26T20:52:28.183Z,-1.39
2023-04-26T20:54:57.065Z,-1.39
2023-04-26T20:57:24.311Z,-1.40
2023-04-26T20:59:51.590Z,-1.40
2023-04-26T21:02:19.316Z,-1.40
2023-04-26T21:04:46.948Z,-1.39
2023-04-26T21:07:14.419Z,-1.38
2023-04-26T21:09:42.232Z,-1.37
2023-04-26T21:12:09.291Z,-1.36
2023-04-26T21:14:36.825Z,-1.36
2023-04-26T21:17:05.626Z,-1.36
2023-04-26T21:19:32.798Z,-1.36
2023-04-26T21:22:00.030Z,-1.36
2023-04-26T21:24:27.187Z,-1.34
2023-04-26T21:26:54.778Z,-1.31
2023-04-26T21:29:22.150Z,-1.28
2023-04-26T21:31:49.536Z,-1.26
2023-04-26T21:34:17.159Z,-1.27
2023-04-26T21:36:44.568Z,-1.29
2023-04-26T21:39:12.700Z,-1.33
2023-04-26T21:41:40.393Z,-1.31
2023-04-26T21:44:07.916Z,-1.34
2023-04-26T21:46:35.030Z,-1.38
2023-04-26T21:49:02.416Z,-1.41
2023-04-26T21:51:29.548Z,-1.41
2023-04-26T21:53:57.090Z,-1.46
2023-04-26T21:56:25.117Z,-1.39
2023-04-26T21:58:52.769Z,-1.41
2023-04-26T22:01:19.822Z,-1.38
2023-04-26T22:03:47.172Z,-1.42
2023-04-26T22:06:14.838Z,-1.39
2023-04-26T22:08:42.344Z,-1.39
2023-04-26T22:11:09.461Z,-1.39
2023-04-26T22:13:37.130Z,-1.39
2023-04-26T22:16:04.663Z,-1.39
2023-04-26T22:18:32.162Z,-1.40
2023-04-26T22:20:59.773Z,-1.39
2023-04-26T22:23:26.818Z,-1.36
2023-04-26T22:25:54.186Z,-1.34
2023-04-26T22:28:21.865Z,-1.32
2023-04-26T22:30:49.103Z,-1.25
2023-04-26T22:33:16.382Z,-1.23
2023-04-26T22:35:44.584Z,-1.16
2023-04-26T22:38:11.602Z,-1.12
2023-04-26T22:40:38.885Z,-1.03
2023-04-26T22:43:06.340Z,-0.93
2023-04-26T22:45:33.460Z,-0.76
2023-04-26T22:48:01.049Z,-0.63
2023-04-26T22:50:28.589Z,-0.51
2023-04-26T22:52:56.229Z,-0.37
2023-04-26T22:55:23.411Z,-0.24
2023-04-26T22:57:50.699Z,-0.10
2023-04-26T23:00:19.596Z,0.10
2023-04-26T23:02:47.256Z,0.29
2023-04-26T23:05:14.822Z,0.50
2023-04-26T23:07:42.090Z,0.83
2023-04-26T23:10:09.797Z,1.85
2023-04-26T23:12:36.894Z,2.17
2023-04-26T23:15:05.080Z,2.35
2023-04-26T23:17:33.750Z,3.04
2023-04-26T23:20:01.079Z,3.09
2023-04-26T23:22:28.756Z,3.14
2023-04-26T23:24:56.035Z,3.14
2023-04-26T23:27:26.273Z,2.95
2023-04-26T23:29:53.756Z,2.68
2023-04-26T23:32:21.415Z,2.55
2023-04-26T23:34:48.493Z,2.43
2023-04-26T23:37:15.921Z,2.36
2023-04-26T23:39:43.145Z,2.69
2023-04-26T23:42:10.398Z,2.70
2023-04-26T23:44:37.436Z,3.90
2023-04-26T23:47:04.647Z,5.04
2023-04-26T23:49:32.304Z,6.21
2023-04-26T23:51:59.378Z,7.49
2023-04-26T23:54:26.793Z,8.57
2023-04-26T23:56:53.919Z,9.68
2023-04-26T23:59:21.162Z,10.62
